Time;durP1;ratioP1;P1;durP2;ratioP2;P2;SDS_P1;SDS_P2;PMS_P1;PMS_P2;Temp;Humidity;BMP_temperature;BMP_pressure;BME280_temperature;BME280_humidity;BME280_pressure;Samples;Min_cycle;Max_cycle;Signal;HPM_P1;HPM_P2
2023/05/17 00:01:26;;;;;;;15.03;13.73;;;;;;;13.56;100.00;92270.91;5091067;28;20259;-75
2023/05/17 00:03:55;;;;;;;15.43;14.07;;;;;;;13.58;100.00;92273.22;5091289;28;20204;-75
2023/05/17 00:06:20;;;;;;;17.70;14.47;;;;;;;13.54;100.00;92273.03;5090944;28;20339;-75
2023/05/17 00:08:46;;;;;;;17.53;15.83;;;;;;;13.38;100.00;92264.06;5091418;28;20195;-76
2023/05/17 00:11:11;;;;;;;14.63;13.23;;;;;;;13.29;100.00;92263.22;5090680;28;20221;-75
2023/05/17 00:13:37;;;;;;;17.33;13.73;;;;;;;13.30;100.00;92259.56;5091473;28;20184;-76
2023/05/17 00:16:03;;;;;;;20.20;12.70;;;;;;;13.06;100.00;92261.75;5090588;28;20243;-75
2023/05/17 00:18:29;;;;;;;15.53;13.80;;;;;;;13.15;100.00;92253.94;5091748;28;20248;-75
2023/05/17 00:20:54;;;;;;;16.40;14.70;;;;;;;13.16;100.00;92263.34;5090219;28;20248;-75
2023/05/17 00:23:19;;;;;;;14.80;13.40;;;;;;;13.09;100.00;92236.81;5091238;28;20189;-76
2023/05/17 00:25:45;;;;;;;20.77;14.53;;;;;;;12.93;100.00;92215.44;5090151;28;20213;-75
2023/05/17 00:28:11;;;;;;;15.80;14.27;;;;;;;13.20;100.00;92259.81;5091098;28;20196;-75
2023/05/17 00:30:36;;;;;;;18.27;14.80;;;;;;;13.19;100.00;92255.66;5072347;28;20272;-75
2023/05/17 00:33:01;;;;;;;15.57;14.17;;;;;;;12.87;100.00;92261.19;5090946;28;20185;-75
2023/05/17 00:35:27;;;;;;;15.03;13.53;;;;;;;13.05;100.00;92259.44;5090297;28;20221;-75
2023/05/17 00:37:52;;;;;;;16.03;14.53;;;;;;;13.04;100.00;92253.44;5073129;28;20188;-76
2023/05/17 00:40:18;;;;;;;15.30;13.10;;;;;;;12.96;100.00;92246.28;5089981;28;20229;-75
2023/05/17 00:42:43;;;;;;;16.50;13.57;;;;;;;13.00;100.00;92262.97;5090362;28;20220;-76
2023/05/17 00:45:09;;;;;;;18.17;13.57;;;;;;;12.81;100.00;92263.16;5089932;28;20251;-76
2023/05/17 00:47:35;;;;;;;13.90;12.80;;;;;;;12.74;100.00;92260.19;5090789;28;20185;-76
2023/05/17 00:50:01;;;;;;;13.97;12.63;;;;;;;12.73;100.00;92258.63;5089569;28;20235;-75
2023/05/17 00:52:27;;;;;;;15.20;13.70;;;;;;;12.84;100.00;92274.88;5090468;28;20222;-75
2023/05/17 00:54:52;;;;;;;17.03;15.37;;;;;;;12.78;100.00;92266.38;5088421;28;20225;-75
2023/05/17 00:57:18;;;;;;;16.47;12.83;;;;;;;12.74;100.00;92264.66;5090241;28;20226;-75
2023/05/17 00:59:44;;;;;;;16.53;14.37;;;;;;;12.78;100.00;92271.59;5089578;28;20264;-75
2023/05/17 01:02:10;;;;;;;15.73;12.77;;;;;;;12.68;100.00;92276.31;5090251;28;20224;-76
2023/05/17 01:04:37;;;;;;;14.50;13.03;;;;;;;12.56;100.00;92263.75;5090077;28;20197;-76
2023/05/17 01:07:02;;;;;;;14.80;13.30;;;;;;;12.65;100.00;92275.06;5079720;28;20188;-76
2023/05/17 01:09:28;;;;;;;16.57;13.80;;;;;;;12.57;100.00;92275.78;5089418;28;20214;-76
2023/05/17 01:12:06;;;;;;;15.43;14.17;;;;;;;12.47;100.00;92277.84;5089638;28;20184;-75
2023/05/17 01:14:53;;;;;;;14.43;13.17;;;;;;;12.51;100.00;92274.34;5089337;28;20206;-76
2023/05/17 01:17:32;;;;;;;14.10;12.73;;;;;;;12.52;100.00;92262.03;5072188;28;20196;-75
2023/05/17 01:20:27;;;;;;;14.53;13.27;;;;;;;12.41;100.00;92266.75;5089476;28;20227;-77
2023/05/17 01:23:13;;;;;;;13.47;12.20;;;;;;;12.34;100.00;92257.75;5071742;28;20220;-77
2023/05/17 01:25:50;;;;;;;14.57;13.03;;;;;;;12.47;100.00;92276.03;5089359;28;20276;-76
2023/05/17 01:28:16;;;;;;;15.90;13.60;;;;;;;12.28;100.00;92235.41;5089660;28;20172;-76
2023/05/17 01:30:46;;;;;;;15.03;13.57;;;;;;;12.47;100.00;92270.78;5089160;28;20220;-76
2023/05/17 01:33:11;;;;;;;16.83;14.00;;;;;;;12.38;100.00;92277.03;5089725;28;20181;-76
2023/05/17 01:35:37;;;;;;;15.00;13.20;;;;;;;12.24;100.00;92239.66;5089648;28;20227;-76
2023/05/17 01:38:02;;;;;;;13.50;12.30;;;;;;;12.46;100.00;92263.22;5069825;28;20192;-76
2023/05/17 01:40:29;;;;;;;16.17;13.00;;;;;;;12.37;100.00;92265.00;5104046;28;20212;-76
2023/05/17 01:43:20;;;;;;;15.23;13.60;;;;;;;12.03;100.00;92255.03;5089808;28;20217;-76
2023/05/17 01:46:17;;;;;;;14.63;12.97;;;;;;;12.26;100.00;92258.47;5089427;28;20227;-77
2023/05/17 01:48:51;;;;;;;13.17;11.97;;;;;;;12.15;100.00;92249.28;5089624;28;20185;-77
2023/05/17 01:51:19;;;;;;;14.30;12.53;;;;;;;12.11;100.00;92248.34;5071968;28;20248;-76
2023/05/17 01:53:54;;;;;;;12.77;11.77;;;;;;;12.12;100.00;92248.06;5088603;28;20181;-77
2023/05/17 01:56:26;;;;;;;13.97;11.70;;;;;;;12.11;100.00;92245.75;5089204;28;20224;-73
2023/05/17 01:58:52;;;;;;;13.47;12.03;;;;;;;11.97;100.00;92232.69;5089900;28;20185;-72
2023/05/17 02:01:20;;;;;;;13.20;11.90;;;;;;;11.95;100.00;92252.38;5088891;28;20234;-74
2023/05/17 02:03:49;;;;;;;13.33;12.07;;;;;;;12.05;100.00;92249.50;5089678;28;20189;-72
2023/05/17 02:06:15;;;;;;;13.80;11.97;;;;;;;11.93;100.00;92242.19;5092272;28;20232;-72
2023/05/17 02:08:41;;;;;;;14.00;12.20;;;;;;;11.93;100.00;92257.09;5093416;28;20191;-72
2023/05/17 02:11:06;;;;;;;12.67;11.67;;;;;;;11.79;100.00;92231.00;5092739;28;20276;-73
2023/05/17 02:13:31;;;;;;;17.87;11.70;;;;;;;11.93;100.00;92244.81;5093731;28;20187;-73
2023/05/17 02:16:01;;;;;;;13.23;11.43;;;;;;;11.77;100.00;92237.56;5092728;28;20226;-72
2023/05/17 02:18:27;;;;;;;13.00;11.17;;;;;;;11.50;100.00;92235.00;5093672;28;20184;-73
2023/05/17 02:20:52;;;;;;;13.60;12.27;;;;;;;11.61;100.00;92216.16;5074276;28;20233;-72
2023/05/17 02:23:18;;;;;;;14.40;12.70;;;;;;;11.82;100.00;92237.47;5092789;28;20208;-73
2023/05/17 02:25:43;;;;;;;12.83;11.77;;;;;;;11.53;100.00;92216.88;5092468;28;20242;-72
2023/05/17 02:28:09;;;;;;;13.30;12.07;;;;;;;11.61;100.00;92218.03;5093373;28;20244;-73
2023/05/17 02:30:35;;;;;;;21.27;12.07;;;;;;;11.83;100.00;92231.19;5092727;28;20235;-73
2023/05/17 02:33:00;;;;;;;13.60;12.20;;;;;;;11.85;100.00;92239.50;5093248;28;20180;-72
2023/05/17 02:35:25;;;;;;;17.57;12.63;;;;;;;11.72;100.00;92219.41;5092697;28;20230;-71
2023/05/17 02:37:51;;;;;;;14.30;12.53;;;;;;;11.82;100.00;92240.09;5092768;28;20180;-72
2023/05/17 02:40:17;;;;;;;13.67;12.30;;;;;;;11.61;100.00;92220.66;5091864;28;20229;-72
2023/05/17 02:42:42;;;;;;;14.83;12.33;;;;;;;11.71;100.00;92236.13;5092673;28;20207;-73
2023/05/17 02:45:08;;;;;;;18.17;13.70;;;;;;;11.83;100.00;92239.78;5092341;28;20243;-72
2023/05/17 02:47:33;;;;;;;17.70;13.73;;;;;;;11.79;100.00;92246.69;5092703;28;20199;-72
2023/05/17 02:49:58;;;;;;;15.43;13.90;;;;;;;11.51;100.00;92226.84;5090980;28;20250;-72
2023/05/17 02:52:24;;;;;;;20.93;12.80;;;;;;;11.53;100.00;92261.31;5092779;28;20208;-72
2023/05/17 02:54:50;;;;;;;16.00;12.90;;;;;;;11.51;100.00;92241.75;5078668;28;20225;-73
2023/05/17 02:57:15;;;;;;;22.17;12.57;;;;;;;11.60;100.00;92256.47;5092838;28;20187;-73
2023/05/17 02:59:41;;;;;;;13.70;12.60;;;;;;;11.65;100.00;92269.47;5091873;28;20287;-72
2023/05/17 03:02:06;;;;;;;16.70;13.53;;;;;;;11.51;100.00;92263.44;5092574;28;20236;-73
2023/05/17 03:04:32;;;;;;;13.87;12.50;;;;;;;11.72;100.00;92279.53;5092161;28;21642;-72
2023/05/17 03:06:58;;;;;;;19.97;13.67;;;;;;;11.55;100.00;92272.25;5092678;28;20184;-74
2023/05/17 03:09:23;;;;;;;15.43;12.47;;;;;;;11.56;100.00;92270.41;5091756;28;20192;-72
2023/05/17 03:11:49;;;;;;;15.33;12.53;;;;;;;11.63;100.00;92284.66;5092294;28;20206;-72
2023/05/17 03:14:15;;;;;;;15.20;12.97;;;;;;;11.60;100.00;92287.06;5092367;28;20727;-73
2023/05/17 03:16:40;;;;;;;17.23;13.57;;;;;;;11.34;100.00;92284.97;5090724;28;20218;-73
2023/05/17 03:19:06;;;;;;;15.90;14.43;;;;;;;11.42;100.00;92295.78;5074120;28;20633;-72
2023/05/17 03:21:31;;;;;;;14.03;12.73;;;;;;;11.58;100.00;92299.66;5091499;28;20284;-73
2023/05/17 03:23:57;;;;;;;15.00;12.57;;;;;;;11.45;100.00;92289.97;5092320;28;20189;-73
2023/05/17 03:26:22;;;;;;;13.87;12.77;;;;;;;11.39;100.00;92292.69;5091626;28;20698;-72
2023/05/17 03:28:48;;;;;;;15.23;13.67;;;;;;;11.66;100.00;92291.16;5091946;28;20217;-72
2023/05/17 03:31:14;;;;;;;14.27;12.97;;;;;;;11.72;100.00;92295.22;5062159;28;20237;-71
2023/05/17 03:33:40;;;;;;;21.07;13.30;;;;;;;11.74;100.00;92282.63;5091933;28;20213;-72
2023/05/17 03:36:06;;;;;;;16.10;13.03;;;;;;;11.74;100.00;92280.00;5091791;28;20289;-74
2023/05/17 03:38:31;;;;;;;17.20;13.10;;;;;;;12.10;100.00;92297.28;5077165;28;20177;-73
2023/05/17 03:40:58;;;;;;;16.20;12.00;;;;;;;12.12;100.00;92294.38;5091030;28;20219;-72
2023/05/17 03:43:23;;;;;;;15.00;13.50;;;;;;;12.03;100.00;92278.59;5091359;28;20188;-72
2023/05/17 03:45:49;;;;;;;14.90;13.17;;;;;;;12.28;100.00;92303.44;5090962;28;20209;-70
2023/05/17 03:48:14;;;;;;;13.93;11.97;;;;;;;12.38;100.00;92298.75;5091407;28;20206;-71
2023/05/17 03:50:40;;;;;;;15.13;13.63;;;;;;;12.27;100.00;92281.72;5089323;28;20258;-71
2023/05/17 03:53:06;;;;;;;15.47;13.53;;;;;;;12.44;100.00;92296.78;5088612;28;20668;-70
2023/05/17 03:55:31;;;;;;;23.03;13.00;;;;;;;12.48;100.00;92298.50;5089721;28;20707;-71
2023/05/17 03:57:56;;;;;;;14.33;12.67;;;;;;;12.15;100.00;92297.19;5072272;28;20185;-70
2023/05/17 04:00:22;;;;;;;23.33;12.87;;;;;;;12.53;100.00;92303.63;5088956;28;20223;-69
2023/05/17 04:02:50;;;;;;;17.53;13.03;;;;;;;12.64;100.00;92301.53;5088934;28;20200;-72
2023/05/17 04:05:16;;;;;;;16.53;12.43;;;;;;;12.95;100.00;92297.13;5080312;28;20220;-69
2023/05/17 04:07:41;;;;;;;13.83;12.43;;;;;;;13.28;100.00;92305.47;5089660;28;20187;-69
2023/05/17 04:10:07;;;;;;;15.37;12.63;;;;;;;13.56;100.00;92291.88;5088381;28;20220;-70
2023/05/17 04:12:33;;;;;;;16.00;12.63;;;;;;;13.76;100.00;92293.94;5089028;28;20173;-72
2023/05/17 04:14:59;;;;;;;16.07;12.70;;;;;;;14.03;100.00;92292.91;5087565;28;20231;-75
2023/05/17 04:17:25;;;;;;;14.80;13.30;;;;;;;13.60;100.00;92271.84;5089259;28;20203;-70
2023/05/17 04:19:50;;;;;;;13.73;12.53;;;;;;;14.54;100.00;92284.34;5088957;28;20286;-71
2023/05/17 04:22:16;;;;;;;13.73;12.40;;;;;;;15.12;100.00;92295.06;5071942;28;20316;-72
2023/05/17 04:24:41;;;;;;;16.17;12.30;;;;;;;15.11;100.00;92301.44;5088979;28;21113;-73
2023/05/17 04:27:06;;;;;;;16.23;12.87;;;;;;;14.83;100.00;92297.59;5096621;28;20193;-72
2023/05/17 04:29:32;;;;;;;14.37;12.97;;;;;;;14.35;100.00;92295.13;5086797;28;20204;-75
2023/05/17 04:31:58;;;;;;;15.37;13.80;;;;;;;14.72;100.00;92306.88;5090222;28;20191;-76
2023/05/17 04:34:23;;;;;;;15.77;14.10;;;;;;;13.63;100.00;92291.44;5089749;28;20750;-75
2023/05/17 04:36:49;;;;;;;18.53;13.57;;;;;;;13.53;100.00;92295.09;5090791;28;20212;-73
2023/05/17 04:39:16;;;;;;;18.40;14.20;;;;;;;13.73;100.00;92291.94;5089520;28;20200;-73
2023/05/17 04:41:41;;;;;;;18.93;16.47;;;;;;;13.94;100.00;92289.50;5087759;28;20224;-72
2023/05/17 04:44:07;;;;;;;17.60;15.70;;;;;;;14.37;100.00;92291.13;5089780;28;20184;-72
2023/05/17 04:46:32;;;;;;;20.30;15.23;;;;;;;14.79;100.00;92270.38;5071678;28;20213;-73
2023/05/17 04:48:58;;;;;;;19.73;16.53;;;;;;;15.85;98.86;92310.47;5089385;28;20216;-72
2023/05/17 04:51:25;;;;;;;21.53;16.07;;;;;;;16.37;92.47;92311.72;5088999;28;20224;-73
2023/05/17 04:53:51;;;;;;;19.93;14.87;;;;;;;16.47;91.94;92297.44;5086471;28;20256;-73
2023/05/17 04:56:17;;;;;;;16.40;14.70;;;;;;;16.92;90.09;92314.09;5085004;28;20228;-72
2023/05/17 04:58:42;;;;;;;17.40;15.20;;;;;;;16.90;89.21;92311.03;5088483;28;20267;-73
2023/05/17 05:01:08;;;;;;;18.80;15.90;;;;;;;17.04;86.15;92304.34;5088736;28;20228;-72
2023/05/17 05:03:33;;;;;;;18.77;16.77;;;;;;;17.33;83.90;92301.59;5085319;28;20193;-73
2023/05/17 05:05:59;;;;;;;22.83;16.77;;;;;;;17.28;83.81;92307.09;5089973;28;20224;-74
2023/05/17 05:08:24;;;;;;;16.83;14.97;;;;;;;17.09;84.25;92312.06;5086979;28;20206;-74
2023/05/17 05:10:50;;;;;;;19.10;17.10;;;;;;;17.58;83.05;92331.47;5069979;28;20250;-72
2023/05/17 05:13:16;;;;;;;17.50;15.77;;;;;;;17.78;83.16;92329.84;5086091;28;20256;-73
2023/05/17 05:15:41;;;;;;;20.00;16.60;;;;;;;17.94;79.56;92328.09;5088511;28;20240;-72
2023/05/17 05:18:07;;;;;;;18.80;16.63;;;;;;;18.49;78.47;92333.63;5088357;28;20180;-73
2023/05/17 05:20:32;;;;;;;16.80;15.20;;;;;;;18.41;77.95;92337.16;5076069;28;20304;-73
2023/05/17 05:22:59;;;;;;;22.73;17.47;;;;;;;18.39;78.80;92328.78;5067442;28;20216;-73
2023/05/17 05:25:25;;;;;;;17.70;15.80;;;;;;;18.47;78.36;92335.81;5071359;28;20256;-71
2023/05/17 05:27:50;;;;;;;18.07;16.30;;;;;;;19.02;76.15;92335.88;5087480;28;20195;-72
2023/05/17 05:30:20;;;;;;;20.63;15.47;;;;;;;19.73;73.51;92336.69;5087922;28;20236;-71
2023/05/17 05:32:47;;;;;;;19.93;16.47;;;;;;;20.34;71.68;92340.47;5070942;28;20193;-73
2023/05/17 05:35:13;;;;;;;19.40;15.60;;;;;;;20.27;71.85;92344.84;5086727;28;20255;-73
2023/05/17 05:37:38;;;;;;;20.77;16.20;;;;;;;19.94;70.28;92345.16;5077497;28;20182;-73
2023/05/17 05:40:04;;;;;;;17.77;15.90;;;;;;;20.87;68.00;92339.00;5067146;28;21100;-72
2023/05/17 05:42:29;;;;;;;22.00;17.30;;;;;;;20.88;68.16;92348.47;5102042;28;20204;-73
2023/05/17 05:44:55;;;;;;;21.90;16.47;;;;;;;22.07;63.72;92358.03;5087807;28;20253;-73
2023/05/17 05:47:20;;;;;;;20.23;16.97;;;;;;;23.14;59.54;92368.00;5088404;28;21004;-73
2023/05/17 05:49:46;;;;;;;18.13;15.50;;;;;;;24.81;53.79;92362.09;5088091;28;20770;-74
2023/05/17 05:52:11;;;;;;;16.80;15.00;;;;;;;25.14;52.59;92353.13;5087663;28;20202;-74
2023/05/17 05:54:36;;;;;;;17.23;15.18;;;;;;;25.46;50.50;92332.69;5103570;28;20191;-75
2023/05/17 05:57:02;;;;;;;22.70;14.63;;;;;;;23.98;52.46;92338.16;5088531;28;20242;-75
2023/05/17 05:59:27;;;;;;;15.90;14.38;;;;;;;24.03;54.10;92340.47;5068689;28;20212;-75
2023/05/17 06:01:53;;;;;;;14.77;13.38;;;;;;;23.84;54.73;92354.75;5087836;28;20214;-75
2023/05/17 06:04:18;;;;;;;17.38;13.63;;;;;;;24.15;54.27;92361.53;5087379;28;20186;-75
2023/05/17 06:06:44;;;;;;;14.82;13.38;;;;;;;24.09;55.41;92368.34;5087738;28;20231;-75
2023/05/17 06:09:11;;;;;;;17.15;13.70;;;;;;;24.96;51.21;92362.97;5088884;28;20190;-75
2023/05/17 06:11:37;;;;;;;15.07;13.48;;;;;;;25.35;50.20;92363.19;5087559;28;20662;-76
2023/05/17 06:14:03;;;;;;;14.23;12.80;;;;;;;24.26;51.91;92339.16;5088636;28;20178;-75
2023/05/17 06:16:28;;;;;;;13.95;12.50;;;;;;;23.31;56.32;92353.41;5088308;28;20223;-74
2023/05/17 06:18:53;;;;;;;14.55;12.95;;;;;;;24.17;55.16;92353.94;5089607;28;20183;-74
2023/05/17 06:21:19;;;;;;;15.13;13.63;;;;;;;24.54;53.02;92349.28;5087726;28;20229;-73
2023/05/17 06:23:44;;;;;;;14.48;12.98;;;;;;;24.00;54.08;92351.88;5088288;28;20301;-74
2023/05/17 06:26:10;;;;;;;13.65;12.25;;;;;;;23.96;54.83;92364.38;5084741;28;20216;-74
2023/05/17 06:28:38;;;;;;;17.30;12.88;;;;;;;23.03;58.44;92363.66;5089191;28;20187;-74
2023/05/17 06:31:03;;;;;;;15.45;13.70;;;;;;;21.52;63.66;92363.81;5087819;28;20235;-75
2023/05/17 06:33:29;;;;;;;14.63;13.23;;;;;;;21.02;64.76;92356.00;5088936;28;20218;-75
2023/05/17 06:35:55;;;;;;;15.07;13.48;;;;;;;20.51;66.11;92353.34;5089238;28;20241;-73
2023/05/17 06:38:21;;;;;;;15.95;14.35;;;;;;;20.67;67.62;92359.41;5088698;28;20195;-74
2023/05/17 06:40:46;;;;;;;18.60;13.47;;;;;;;20.03;69.96;92364.31;5090088;28;20226;-75
2023/05/17 06:43:11;;;;;;;16.30;13.47;;;;;;;20.09;69.92;92347.06;5095948;28;20226;-75
2023/05/17 06:45:37;;;;;;;18.47;13.07;;;;;;;20.27;68.96;92340.31;5087445;28;20222;-74
2023/05/17 06:48:02;;;;;;;14.35;12.40;;;;;;;20.12;69.09;92351.69;5088548;28;20196;-74
2023/05/17 06:50:29;;;;;;;15.47;12.93;;;;;;;20.16;70.48;92357.84;5088321;28;20218;-74
2023/05/17 06:52:54;;;;;;;15.65;12.18;;;;;;;20.20;69.14;92348.09;5091172;28;20917;-73
2023/05/17 06:55:20;;;;;;;16.57;12.83;;;;;;;20.23;69.87;92342.09;5091776;28;20212;-74
2023/05/17 06:57:45;;;;;;;13.48;12.15;;;;;;;20.15;69.37;92335.13;5080362;28;20183;-74
2023/05/17 07:00:11;;;;;;;15.23;13.13;;;;;;;20.30;68.97;92346.78;5097656;28;20226;-74
2023/05/17 07:02:37;;;;;;;15.45;11.65;;;;;;;20.50;69.73;92353.69;5091719;28;20212;-74
2023/05/17 07:05:05;;;;;;;14.70;13.10;;;;;;;20.59;69.45;92349.75;5091603;28;20287;-73
2023/05/17 07:07:30;;;;;;;15.37;13.40;;;;;;;20.22;70.06;92345.88;5095639;28;20194;-73
2023/05/17 07:09:56;;;;;;;15.33;12.97;;;;;;;20.44;70.62;92352.44;5091541;28;20709;-73
2023/05/17 07:12:21;;;;;;;19.77;12.83;;;;;;;20.48;71.32;92363.91;5093017;28;20218;-73
2023/05/17 07:14:46;;;;;;;17.63;12.53;;;;;;;20.21;70.75;92370.84;5089235;28;20978;-73
2023/05/17 07:17:12;;;;;;;16.10;13.40;;;;;;;20.32;71.33;92365.78;5085513;28;20188;-72
2023/05/17 07:19:37;;;;;;;15.10;12.63;;;;;;;20.06;71.37;92366.28;5091814;28;20243;-72
2023/05/17 07:22:03;;;;;;;14.77;12.57;;;;;;;19.70;71.66;92365.75;5091807;28;20309;-72
2023/05/17 07:24:28;;;;;;;14.10;12.60;;;;;;;19.82;70.44;92353.19;5100182;28;20197;-74
2023/05/17 07:26:54;;;;;;;12.97;11.67;;;;;;;19.61;71.78;92368.53;5093569;28;20191;-73
2023/05/17 07:29:19;;;;;;;14.23;12.60;;;;;;;19.58;72.18;92363.91;5091783;28;20194;-74
2023/05/17 07:31:45;;;;;;;14.97;13.43;;;;;;;19.30;72.04;92371.09;5070702;28;20214;-74
2023/05/17 07:34:13;;;;;;;17.17;14.10;;;;;;;19.16;75.80;92370.69;5070101;28;20199;-75
2023/05/17 07:36:38;;;;;;;13.03;11.83;;;;;;;19.39;73.50;92366.47;5090476;28;20257;-75
2023/05/17 07:39:04;;;;;;;14.63;13.33;;;;;;;19.03;75.10;92379.78;5091435;28;20179;-74
2023/05/17 07:41:31;;;;;;;15.93;14.23;;;;;;;19.48;74.43;92376.88;5091113;28;20227;-74
2023/05/17 07:43:56;;;;;;;14.20;12.80;;;;;;;19.83;73.28;92383.88;5091651;28;20276;-74
2023/05/17 07:46:22;;;;;;;16.23;13.67;;;;;;;19.79;73.55;92363.69;5095013;28;20215;-75
2023/05/17 07:48:47;;;;;;;18.17;14.47;;;;;;;19.45;76.33;92386.28;5090999;28;20312;-71
2023/05/17 07:51:13;;;;;;;15.43;13.93;;;;;;;19.44;76.04;92352.94;5090638;28;20230;-71
2023/05/17 07:53:38;;;;;;;15.50;13.87;;;;;;;19.83;73.58;92380.47;5091484;28;20208;-70
2023/05/17 07:56:04;;;;;;;15.87;14.20;;;;;;;20.05;74.17;92382.50;5090751;28;20248;-70
2023/05/17 07:58:29;;;;;;;15.80;13.97;;;;;;;19.96;72.96;92388.00;5091168;28;20187;-70
2023/05/17 08:00:55;;;;;;;17.37;14.33;;;;;;;19.88;72.33;92378.31;5077299;28;20230;-70
2023/05/17 08:03:20;;;;;;;21.07;14.97;;;;;;;19.58;74.98;92379.81;5069977;28;20278;-70
2023/05/17 08:05:45;;;;;;;17.50;14.30;;;;;;;19.49;74.78;92378.41;5070456;28;20232;-69
2023/05/17 08:08:11;;;;;;;14.70;12.57;;;;;;;19.57;74.81;92377.50;5070555;28;20215;-69
2023/05/17 08:10:36;;;;;;;15.43;13.93;;;;;;;19.56;75.30;92381.25;5070209;28;20234;-68
2023/05/17 08:13:03;;;;;;;16.10;14.40;;;;;;;19.58;74.25;92379.06;5070201;28;20196;-71
2023/05/17 08:15:29;;;;;;;16.50;14.23;;;;;;;19.71;73.94;92381.28;5069864;28;20216;-71
2023/05/17 08:17:54;;;;;;;18.27;13.77;;;;;;;19.57;73.53;92357.09;5073293;28;20301;-72
2023/05/17 08:20:20;;;;;;;14.53;13.17;;;;;;;20.13;73.60;92376.28;5070074;28;20872;-72
2023/05/17 08:22:46;;;;;;;15.67;14.17;;;;;;;20.34;72.21;92374.94;5071534;28;20210;-71
2023/05/17 08:25:11;;;;;;;14.67;12.20;;;;;;;20.34;69.79;92374.94;5070107;28;20216;-72
2023/05/17 08:27:37;;;;;;;15.67;13.30;;;;;;;20.26;71.08;92373.25;5070406;28;20196;-71
2023/05/17 08:30:03;;;;;;;13.40;12.10;;;;;;;20.30;71.41;92368.78;5083237;28;20311;-71
2023/05/17 08:32:28;;;;;;;13.57;12.17;;;;;;;19.95;71.06;92352.03;5052664;28;20195;-71
2023/05/17 08:34:54;;;;;;;14.23;12.83;;;;;;;20.21;71.26;92373.50;5069547;28;20246;-71
2023/05/17 08:37:20;;;;;;;15.07;13.47;;;;;;;20.38;71.31;92375.78;5070036;28;20286;-72
2023/05/17 08:39:46;;;;;;;14.07;12.43;;;;;;;20.42;71.98;92387.25;5069443;28;20235;-71
2023/05/17 08:42:15;;;;;;;16.57;12.83;;;;;;;20.63;69.72;92381.66;5069923;28;20208;-72
2023/05/17 08:44:40;;;;;;;21.13;14.77;;;;;;;20.29;70.25;92388.47;5068453;28;20232;-71
2023/05/17 08:47:10;;;;;;;17.60;13.55;;;;;;;20.07;70.12;92359.88;5069558;28;20187;-72
2023/05/17 08:49:36;;;;;;;20.30;14.27;;;;;;;20.31;71.68;92375.63;5063674;28;20223;-71
2023/05/17 08:52:08;;;;;;;14.93;13.30;;;;;;;20.13;71.97;92369.13;5066379;28;20229;-72
2023/05/17 08:54:34;;;;;;;15.63;13.97;;;;;;;19.87;73.70;92360.91;5062523;28;20255;-70
2023/05/17 08:57:03;;;;;;;18.35;13.30;;;;;;;19.88;71.82;92370.38;5065539;28;20209;-71
2023/05/17 08:59:32;;;;;;;15.57;13.53;;;;;;;19.23;75.60;92373.53;5069412;28;20203;-71
2023/05/17 09:01:58;;;;;;;16.60;13.47;;;;;;;18.73;76.11;92374.00;5069699;28;20211;-71
2023/05/17 09:04:24;;;;;;;15.20;13.70;;;;;;;19.01;76.70;92356.31;5069393;28;20211;-72
2023/05/17 09:06:49;;;;;;;15.00;13.30;;;;;;;19.40;75.55;92375.16;5069616;28;20210;-73
2023/05/17 09:09:15;;;;;;;16.03;13.63;;;;;;;19.86;74.07;92375.25;5069778;28;20195;-71
2023/05/17 09:11:41;;;;;;;16.27;14.53;;;;;;;20.31;72.56;92375.63;5068588;28;20258;-71
2023/05/17 09:14:06;;;;;;;17.53;13.50;;;;;;;20.08;71.89;92332.25;5051308;28;20203;-69
2023/05/17 09:16:34;;;;;;;16.90;13.67;;;;;;;19.86;73.29;92369.19;5068501;28;20243;-69
2023/05/17 09:19:00;;;;;;;15.77;14.02;;;;;;;20.01;73.25;92363.91;5051911;28;20195;-69
2023/05/17 09:21:27;;;;;;;16.27;12.80;;;;;;;20.14;72.51;92365.38;5068495;28;20228;-68
2023/05/17 09:23:54;;;;;;;14.37;12.83;;;;;;;20.35;72.90;92371.19;5069529;28;20208;-71
2023/05/17 09:26:20;;;;;;;14.03;12.73;;;;;;;20.42;70.86;92371.34;5069538;28;20224;-72
2023/05/17 09:28:47;;;;;;;14.63;12.13;;;;;;;20.35;70.55;92373.84;5069752;28;20195;-71
2023/05/17 09:31:15;;;;;;;13.40;11.30;;;;;;;20.53;69.79;92377.66;5069131;28;20258;-70
2023/05/17 09:33:49;;;;;;;14.03;12.33;;;;;;;20.45;69.86;92383.91;5069158;28;20184;-69
2023/05/17 09:36:19;;;;;;;16.03;12.33;;;;;;;20.56;70.68;92376.22;5068473;28;20285;-71
2023/05/17 09:38:58;;;;;;;13.67;12.23;;;;;;;20.69;70.60;92382.94;5069265;28;20210;-70
2023/05/17 09:41:29;;;;;;;12.23;11.07;;;;;;;20.40;69.48;92372.81;5051302;28;20267;-70
2023/05/17 09:44:06;;;;;;;13.18;11.80;;;;;;;20.29;69.17;92393.78;5069427;28;20184;-70
2023/05/17 09:46:37;;;;;;;13.30;11.10;;;;;;;19.90;70.70;92385.94;5069018;28;20238;-70
2023/05/17 09:49:03;;;;;;;16.77;10.83;;;;;;;19.80;72.24;92383.81;5069485;28;20184;-71
2023/05/17 09:51:42;;;;;;;13.80;11.90;;;;;;;19.96;72.85;92377.41;5050177;28;20231;-72
2023/05/17 09:54:11;;;;;;;15.77;11.80;;;;;;;20.16;71.71;92387.00;5062963;28;20187;-70
2023/05/17 09:56:37;;;;;;;16.37;12.60;;;;;;;20.41;70.99;92382.28;5050644;28;20226;-67
2023/05/17 09:59:03;;;;;;;14.17;12.73;;;;;;;20.54;70.12;92376.56;5068940;28;20252;-68
2023/05/17 10:01:30;;;;;;;16.13;13.13;;;;;;;20.42;71.91;92376.63;5067757;28;20223;-68
2023/05/17 10:04:03;;;;;;;14.63;11.60;;;;;;;20.36;72.42;92370.06;5068205;28;20195;-67
2023/05/17 10:06:32;;;;;;;13.80;12.27;;;;;;;20.55;70.45;92364.03;5049327;28;20212;-67
2023/05/17 10:09:00;;;;;;;14.17;12.67;;;;;;;20.34;70.61;92369.63;5068034;28;20251;-67
2023/05/17 10:11:32;;;;;;;13.63;11.97;;;;;;;19.90;72.06;92338.25;5066400;28;20227;-70
2023/05/17 10:14:08;;;;;;;14.50;11.90;;;;;;;19.73;73.17;92357.09;5068544;28;20269;-70
2023/05/17 10:16:36;;;;;;;14.03;12.17;;;;;;;19.77;74.54;92347.38;5067923;28;20260;-70
2023/05/17 10:19:02;;;;;;;16.07;12.50;;;;;;;19.78;74.92;92333.03;5068473;28;20194;-70
2023/05/17 10:21:30;;;;;;;13.33;12.00;;;;;;;19.62;75.24;92317.13;5050829;28;20239;-70
2023/05/17 10:23:56;;;;;;;22.47;13.97;;;;;;;19.57;74.87;92322.66;5067697;28;20192;-70
2023/05/17 10:26:21;;;;;;;18.70;13.70;;;;;;;19.50;75.92;92317.19;5064561;28;20230;-71
2023/05/17 10:28:50;;;;;;;16.57;11.30;;;;;;;19.25;74.07;92281.34;5066526;28;20191;-71
2023/05/17 10:31:17;;;;;;;14.23;11.23;;;;;;;19.43;74.37;92309.06;5053384;28;20315;-72
2023/05/17 10:33:45;;;;;;;12.50;10.80;;;;;;;19.41;72.75;92292.72;5072188;28;20245;-72
2023/05/17 10:36:16;;;;;;;17.03;12.03;;;;;;;19.12;74.68;92287.78;5069837;28;20236;-70
2023/05/17 10:38:41;;;;;;;15.03;12.33;;;;;;;18.91;75.21;92284.59;5073798;28;20183;-70
2023/05/17 10:41:08;;;;;;;12.83;11.57;;;;;;;18.55;77.81;92274.13;5071232;28;20303;-68
2023/05/17 10:43:33;;;;;;;15.93;11.47;;;;;;;18.75;74.89;92267.88;5069927;28;20217;-68
2023/05/17 10:46:01;;;;;;;17.53;13.80;;;;;;;18.97;74.19;92246.94;5069768;28;20970;-68
2023/05/17 10:48:29;;;;;;;13.27;11.80;;;;;;;19.07;73.51;92253.63;5070192;28;20186;-66
2023/05/17 10:50:55;;;;;;;15.47;11.73;;;;;;;19.25;73.14;92241.63;5069036;28;20240;-69
2023/05/17 10:53:21;;;;;;;13.53;12.13;;;;;;;19.45;73.47;92235.34;5067350;28;20204;-68
2023/05/17 10:55:46;;;;;;;12.73;11.40;;;;;;;19.28;75.10;92229.63;5070931;28;20279;-71
2023/05/17 10:58:14;;;;;;;13.53;11.93;;;;;;;19.19;74.62;92219.94;5070993;28;20206;-70
2023/05/17 11:00:41;;;;;;;13.50;12.20;;;;;;;19.27;72.84;92215.56;5070586;28;20226;-71
2023/05/17 11:03:12;;;;;;;13.93;12.27;;;;;;;19.19;74.43;92208.59;5070819;28;20215;-71
2023/05/17 11:05:41;;;;;;;19.67;12.23;;;;;;;19.47;74.10;92213.84;5070709;28;20258;-71
2023/05/17 11:08:17;;;;;;;13.90;11.93;;;;;;;19.62;73.40;92213.03;5063910;28;20186;-72
2023/05/17 11:11:09;;;;;;;17.63;12.30;;;;;;;19.57;74.09;92213.31;5062515;28;20334;-71
2023/05/17 11:13:53;;;;;;;12.70;11.50;;;;;;;19.45;74.58;92218.69;5057190;28;20196;-72